Polis 139-9950 — SFC7700 — position and weather

sailwx.info

Track history (hours):
 
Tides and Currents Weather Stations Pressure Air Temp Water Temp Dewpoint Dewpoint Depression Visibility Wind Speed Wind Dir Waves Ship Positions

Polis 139-9950

Last reported at 2017-Jun-24 18:15 UTC. Time now 2017-Jun-25 00:18 UTC.
Position N 59°26' E 018°26'.

Length 16 m.

Type: Law enforcement. MMSI: 265565600.

Date/timePositionNaut miles runAvg speedWind from/ knotsBaromVisibWave heightAir tempDewpointWater temp
2017-Jun-24 18:15N 59°26' E 018°26'2 8.7
2017-Jun-24 17:59N 59°25' E 018°22'816.8
2017-Jun-24 17:30N 59°19' E 018°10'0 0.0
2017-Jun-24 17:00N 59°19' E 018°10'0 0.0
2017-Jun-24 16:30N 59°19' E 018°10'0 0.0
2017-Jun-24 16:00N 59°19' E 018°10'0 0.0
2017-Jun-24 15:30N 59°19' E 018°10'0 0.3
2017-Jun-24 15:00N 59°19' E 018°10'714.3
2017-Jun-24 14:30N 59°22' E 018°22'5 0.7
2017-Jun-24 07:38N 59°26' E 018°28'324.2
2017-Jun-24 07:30N 59°26' E 018°22'4 7.2
2017-Jun-24 07:00N 59°23' E 018°17'5 9.8
2017-Jun-24 06:30N 59°21' E 018°08'2 3.8
2017-Jun-24 06:00N 59°19' E 018°10'0 0.0
2017-Jun-24 05:30N 59°19' E 018°10'0 0.0
2017-Jun-24 05:00N 59°19' E 018°10'0 0.2
2017-Jun-24 04:30N 59°19' E 018°10'4 7.9
2017-Jun-24 04:00N 59°23' E 018°11'4 7.9
2017-Jun-24 03:30N 59°22' E 018°18'1919.4
2017-Jun-24 02:31N 59°17' E 018°55'0 0.0
2017-Jun-24 02:28N 59°17' E 018°55'0 0.0
2017-Jun-24 01:52N 59°17' E 018°55'0 0.0
2017-Jun-24 01:30N 59°17' E 018°55'0 0.0
2017-Jun-24 00:56N 59°17' E 018°55'2 4.5
2017-Jun-24 00:30N 59°18' E 018°52'5 7.5
2017-Jun-23 23:52N 59°17' E 018°42'410.1
2017-Jun-23 23:31N 59°19' E 018°49'3 6.8
2017-Jun-23 23:00N 59°17' E 018°55'0 0.0
2017-Jun-23 22:30N 59°17' E 018°55'0 0.0
2017-Jun-23 22:00N 59°17' E 018°55'0 0.0
2017-Jun-23 21:30N 59°17' E 018°55'1 1.9
2017-Jun-23 21:00N 59°17' E 018°57'0 0.0
2017-Jun-23 20:30N 59°17' E 018°57'0 0.0
2017-Jun-23 20:00N 59°17' E 018°57'0 0.0
2017-Jun-23 19:30N 59°17' E 018°57'1 1.9
2017-Jun-23 19:00N 59°17' E 018°55'1020.7
2017-Jun-23 18:30N 59°23' E 018°38'1120.8
2017-Jun-23 17:57N 59°26' E 018°16'3 7.1
2017-Jun-23 17:29N 59°24' E 018°22'816.5
2017-Jun-23 17:00N 59°19' E 018°10'0 0.0
2017-Jun-23 16:30N 59°19' E 018°10'5 9.6
2017-Jun-23 16:00N 59°22' E 018°17'5 9.6
2017-Jun-23 15:30N 59°19' E 018°10'2 3.5
2017-Jun-23 15:01N 59°20' E 018°12'7 6.8
2017-Jun-23 14:00N 59°25' E 018°22'815.7
2017-Jun-23 13:30N 59°20' E 018°10'1 1.5
2017-Jun-23 13:00N 59°19' E 018°10'0 0.0
2017-Jun-23 12:30N 59°19' E 018°10'0 0.0
2017-Jun-23 12:00N 59°19' E 018°10'0 0.0
2017-Jun-23 11:30N 59°19' E 018°10'2 4.1
2017-Jun-23 11:00N 59°19' E 018°06'1 1.2
2017-Jun-23 10:30N 59°19' E 018°06'0 0.2
2017-Jun-23 10:00N 59°19' E 018°06'2 3.3
2017-Jun-23 09:30N 59°19' E 018°09'0 0.3
2017-Jun-23 09:00N 59°19' E 018°10'0 0.0
2017-Jun-23 08:30N 59°19' E 018°10'0 0.0
2017-Jun-23 08:00N 59°19' E 018°10'0 0.0
2017-Jun-23 07:30N 59°19' E 018°10'0 0.0
2017-Jun-23 07:00N 59°19' E 018°10'0 0.0
2017-Jun-23 06:30N 59°19' E 018°10'0 0.0
2017-Jun-23 06:00N 59°19' E 018°10'0 0.0
2017-Jun-23 05:30N 59°19' E 018°10'0 0.0
2017-Jun-23 05:00N 59°19' E 018°10'0 0.0
2017-Jun-23 04:30N 59°19' E 018°10'0 0.0
2017-Jun-23 04:00N 59°19' E 018°10'0 0.0
2017-Jun-23 03:30N 59°19' E 018°10'3 7.0
2017-Jun-23 03:00N 59°21' E 018°15'9 4.2
2017-Jun-23 00:45N 59°25' E 018°32'518.4
2017-Jun-23 00:30N 59°22' E 018°24'816.3
2017-Jun-23 00:00N 59°19' E 018°10'0 0.0
2017-Jun-22 23:30N 59°19' E 018°10'0 0.0
2017-Jun-22 23:00N 59°19' E 018°10'0 0.0
2017-Jun-22 22:30N 59°19' E 018°10'0 0.0
2017-Jun-22 22:01N 59°19' E 018°10'0 0.0
2017-Jun-22 21:31N 59°19' E 018°10'0 0.0
2017-Jun-22 21:00N 59°19' E 018°10'0 0.0
2017-Jun-22 20:30N 59°19' E 018°10'0 0.0
2017-Jun-22 20:01N 59°19' E 018°10'0 0.0
2017-Jun-22 19:30N 59°19' E 018°10'0 0.0
2017-Jun-22 19:00N 59°19' E 018°10'0 0.0
2017-Jun-22 18:30N 59°19' E 018°10'0 0.0
2017-Jun-22 18:00N 59°19' E 018°10'0 0.0
2017-Jun-22 17:31N 59°19' E 018°10'0 0.0
2017-Jun-22 17:00N 59°19' E 018°10'0 0.0
2017-Jun-22 16:30N 59°19' E 018°10'0 0.0
2017-Jun-22 16:00N 59°19' E 018°10'0 0.0
2017-Jun-22 15:31N 59°19' E 018°10'0 0.0
2017-Jun-22 15:00N 59°19' E 018°10'0 0.0
2017-Jun-22 14:30N 59°19' E 018°10'0 0.0
2017-Jun-22 13:30N 59°19' E 018°10'0 0.0
2017-Jun-22 13:01N 59°19' E 018°10'0 0.0
2017-Jun-22 12:30N 59°19' E 018°10'917.6
2017-Jun-22 11:58N 59°23' E 018°27'14 4.9
2017-Jun-22 09:02N 59°27' E 018°54'10 1.6
2017-Jun-22 03:04N 59°17' E 018°57'0 0.0
2017-Jun-22 03:00N 59°17' E 018°57'0 0.0
2017-Jun-22 02:30N 59°17' E 018°57'0 0.0
2017-Jun-22 01:18N 59°17' E 018°57'0 0.0
2017-Jun-22 01:00N 59°17' E 018°57'0 0.0
2017-Jun-22 00:30N 59°17' E 018°57'0 0.0
2017-Jun-22 00:00N 59°17' E 018°57'0 0.0
2017-Jun-21 23:30N 59°17' E 018°57'0 0.0
2017-Jun-21 23:00N 59°17' E 018°57'0 0.0
2017-Jun-21 22:24N 59°17' E 018°57'0 0.1
2017-Jun-21 22:00N 59°17' E 018°57'0 0.1
2017-Jun-21 21:30N 59°17' E 018°57'0 0.0
2017-Jun-21 20:58N 59°17' E 018°57'17 3.9
2017-Jun-21 16:45N 59°25' E 018°28'314.0
2017-Jun-21 16:30N 59°25' E 018°22'714.4
2017-Jun-21 16:00N 59°20' E 018°12'1 2.4
2017-Jun-21 15:30N 59°19' E 018°10'0 0.0
2017-Jun-21 15:00N 59°19' E 018°10'0 0.0
2017-Jun-21 14:00N 59°19' E 018°10'0 0.0
2017-Jun-21 13:31N 59°19' E 018°10'0 0.0
2017-Jun-21 13:00N 59°19' E 018°10'0 0.0
2017-Jun-21 12:31N 59°19' E 018°10'0 0.0
2017-Jun-21 12:00N 59°19' E 018°10'0 0.0
2017-Jun-21 11:30N 59°19' E 018°10'0 0.0
2017-Jun-21 11:00N 59°19' E 018°10'0 0.0
2017-Jun-21 10:30N 59°19' E 018°10'0 0.0
2017-Jun-21 10:00N 59°19' E 018°10'0 0.0
2017-Jun-21 09:30N 59°19' E 018°10'0 0.0
2017-Jun-21 09:01N 59°19' E 018°10'4 8.9
2017-Jun-21 08:30N 59°22' E 018°16'4 7.0
2017-Jun-21 07:59N 59°24' E 018°22'0 0.0
2017-Jun-21 07:28N 59°24' E 018°22'0 0.0
2017-Jun-21 07:00N 59°24' E 018°22'0 0.0
2017-Jun-21 06:30N 59°24' E 018°22'0 0.0
2017-Jun-21 06:00N 59°24' E 018°22'0 0.0
2017-Jun-21 05:30N 59°24' E 018°22'0 0.0
2017-Jun-21 05:00N 59°24' E 018°22'0 0.0
2017-Jun-21 04:30N 59°24' E 018°22'0 0.0
2017-Jun-21 04:00N 59°24' E 018°22'0 0.0
2017-Jun-21 03:30N 59°24' E 018°22'0 0.0
2017-Jun-21 03:00N 59°24' E 018°22'0 0.0
2017-Jun-21 02:30N 59°24' E 018°22'0 0.0
2017-Jun-21 02:00N 59°24' E 018°22'0 0.0
2017-Jun-21 01:30N 59°24' E 018°22'0 0.0
2017-Jun-21 01:00N 59°24' E 018°22'0 0.0
2017-Jun-21 00:22N 59°24' E 018°22'0 0.0
2017-Jun-21 00:00N 59°24' E 018°22'0 0.0
2017-Jun-20 23:30N 59°24' E 018°22'0 0.0
2017-Jun-20 23:00N 59°24' E 018°22'0 0.0
2017-Jun-20 21:37N 59°24' E 018°22'0 0.0
2017-Jun-20 21:26N 59°24' E 018°22'0 0.0
2017-Jun-20 20:57N 59°24' E 018°22'0 0.0
2017-Jun-20 20:27N 59°24' E 018°22'0 0.0
2017-Jun-20 19:59N 59°24' E 018°22'0 0.0
2017-Jun-20 19:29N 59°24' E 018°22'0 0.0
2017-Jun-20 19:00N 59°24' E 018°22'0 0.0
2017-Jun-20 18:29N 59°24' E 018°22'0 0.0
2017-Jun-20 17:46N 59°24' E 018°22'0 0.0
2017-Jun-20 17:21N 59°24' E 018°22'0 0.0
2017-Jun-20 16:53N 59°24' E 018°22'0 0.0
2017-Jun-20 16:29N 59°24' E 018°22'0 0.0
2017-Jun-20 15:57N 59°24' E 018°22'0 0.0
2017-Jun-20 15:25N 59°24' E 018°22'0 0.0
2017-Jun-20 15:00N 59°24' E 018°22'0 0.0
2017-Jun-20 13:59N 59°24' E 018°22'0 0.0
2017-Jun-20 13:30N 59°24' E 018°22'0 0.0
2017-Jun-20 12:59N 59°24' E 018°22'0 0.0
2017-Jun-20 12:25N 59°24' E 018°22'0 0.0
2017-Jun-20 11:54N 59°24' E 018°22'0 0.0
2017-Jun-20 11:30N 59°24' E 018°22'0 0.0
2017-Jun-20 11:00N 59°24' E 018°22'0 0.0
2017-Jun-20 10:29N 59°24' E 018°22'0 0.0
2017-Jun-20 10:00N 59°24' E 018°22'0 0.0
2017-Jun-20 09:29N 59°24' E 018°22'0 0.0
2017-Jun-20 09:00N 59°24' E 018°22'0 0.0
2017-Jun-20 08:30N 59°24' E 018°22'0 0.0
2017-Jun-20 07:53N 59°24' E 018°22'0 0.0
2017-Jun-20 07:29N 59°24' E 018°22'0 0.0
2017-Jun-20 06:58N 59°24' E 018°22'0 0.0
2017-Jun-20 06:28N 59°24' E 018°22'0 0.0
2017-Jun-20 05:59N 59°24' E 018°22'0 0.0
2017-Jun-20 05:30N 59°24' E 018°22'0 0.0
2017-Jun-20 04:56N 59°24' E 018°22'0 0.0
2017-Jun-20 04:30N 59°24' E 018°22'0 0.0
2017-Jun-20 03:58N 59°24' E 018°22'0 0.0
2017-Jun-20 03:28N 59°24' E 018°22'0 0.0
2017-Jun-20 03:00N 59°24' E 018°22'0 0.0
2017-Jun-20 02:28N 59°24' E 018°22'0 0.0
2017-Jun-20 01:59N 59°24' E 018°22'0 0.0
2017-Jun-20 01:29N 59°24' E 018°22'0 0.0
2017-Jun-20 01:00N 59°24' E 018°22'0 0.0
2017-Jun-20 00:30N 59°24' E 018°22'0 0.0
2017-Jun-20 00:00N 59°24' E 018°22'0 0.0
2017-Jun-19 23:30N 59°24' E 018°22'0 0.0
2017-Jun-19 23:00N 59°24' E 018°22'0 0.0
2017-Jun-19 22:30N 59°24' E 018°22'0 0.0
2017-Jun-19 22:00N 59°24' E 018°22'0 0.0
2017-Jun-19 21:30N 59°24' E 018°22'0 0.0
2017-Jun-19 21:00N 59°24' E 018°22'0 0.0
2017-Jun-19 20:30N 59°24' E 018°22'0 0.0
2017-Jun-19 20:00N 59°24' E 018°22'0 0.0
2017-Jun-19 19:29N 59°24' E 018°22'0 0.0
2017-Jun-19 19:00N 59°24' E 018°22'0 0.0
2017-Jun-19 18:30N 59°24' E 018°22'0 0.0
2017-Jun-19 18:00N 59°24' E 018°22'0 0.0
2017-Jun-19 17:30N 59°24' E 018°22'0 0.0
2017-Jun-19 17:00N 59°24' E 018°22'0 0.0
2017-Jun-19 16:30N 59°24' E 018°22'0 0.0
2017-Jun-19 16:00N 59°24' E 018°22'0 0.0
2017-Jun-19 15:30N 59°24' E 018°22'0 0.0
2017-Jun-19 15:00N 59°24' E 018°22'0 0.0
2017-Jun-19 13:59N 59°24' E 018°22'0 0.0
2017-Jun-19 13:28N 59°24' E 018°22'0 0.0
2017-Jun-19 12:59N 59°24' E 018°22'0 0.0
2017-Jun-19 12:29N 59°24' E 018°22'0 0.0
2017-Jun-19 12:00N 59°24' E 018°22'0 0.0
2017-Jun-19 11:27N 59°24' E 018°22'0 0.0
2017-Jun-19 10:56N 59°24' E 018°22'0 0.0
2017-Jun-19 10:23N 59°24' E 018°22'0 0.0
2017-Jun-19 09:59N 59°24' E 018°22'0 0.0
2017-Jun-19 09:29N 59°24' E 018°22'0 0.0
2017-Jun-19 08:59N 59°24' E 018°22'2 4.7
2017-Jun-19 08:31N 59°23' E 018°19'611.8
2017-Jun-19 08:00N 59°19' E 018°10'0 0.0
2017-Jun-19 07:30N 59°19' E 018°10'0 0.0
2017-Jun-19 07:00N 59°19' E 018°10'0 0.0
2017-Jun-19 06:30N 59°19' E 018°10'0 0.0
2017-Jun-19 06:00N 59°19' E 018°10'0 0.0
2017-Jun-19 05:31N 59°19' E 018°10'0 0.0
2017-Jun-19 05:01N 59°19' E 018°10'0 0.0
2017-Jun-19 04:31N 59°19' E 018°10'0 0.0
2017-Jun-19 04:00N 59°19' E 018°10'0 0.0
2017-Jun-19 03:31N 59°19' E 018°10'0 0.0
2017-Jun-19 03:00N 59°19' E 018°10'0 0.0
2017-Jun-19 02:30N 59°19' E 018°10'0 0.0
2017-Jun-19 02:00N 59°19' E 018°10'0 0.0
2017-Jun-19 01:30N 59°19' E 018°10'0 0.0
2017-Jun-19 01:00N 59°19' E 018°10'0 0.0
2017-Jun-19 00:30N 59°19' E 018°10'0 0.0
2017-Jun-19 00:00N 59°19' E 018°10'0 0.0
2017-Jun-18 23:31N 59°19' E 018°10'0 0.0
2017-Jun-18 23:00N 59°19' E 018°10'0 0.0
2017-Jun-18 22:30N 59°19' E 018°10'0 0.0
2017-Jun-18 22:00N 59°19' E 018°10'0 0.0
2017-Jun-18 21:30N 59°19' E 018°10'0 0.0
2017-Jun-18 21:01N 59°19' E 018°10'0 0.0
2017-Jun-18 20:30N 59°19' E 018°10'0 0.0
2017-Jun-18 20:01N 59°19' E 018°10'0 0.0
2017-Jun-18 19:31N 59°19' E 018°10'0 0.0
2017-Jun-18 19:00N 59°19' E 018°10'0 0.0
2017-Jun-18 18:31N 59°19' E 018°10'0 0.0
2017-Jun-18 18:01N 59°19' E 018°10'0 0.0
2017-Jun-18 17:30N 59°19' E 018°10'0 0.0
2017-Jun-18 17:01N 59°19' E 018°10'0 0.0
2017-Jun-18 16:31N 59°19' E 018°10'0 0.0
2017-Jun-18 16:00N 59°19' E 018°10'0 0.0
2017-Jun-18 15:30N 59°19' E 018°10'0 0.0
2017-Jun-18 15:00N 59°19' E 018°10'0 0.0
2017-Jun-18 14:00N 59°19' E 018°10'0 0.0
2017-Jun-18 13:31N 59°19' E 018°10'0 0.0
2017-Jun-18 13:00N 59°19' E 018°10'0 0.0
2017-Jun-18 12:30N 59°19' E 018°10'0 0.0
2017-Jun-18 12:00N 59°19' E 018°10'0 0.0
2017-Jun-18 11:30N 59°19' E 018°10'0 0.0
2017-Jun-18 11:01N 59°19' E 018°10'0 0.0
2017-Jun-18 10:30N 59°19' E 018°10'0 0.0
2017-Jun-18 10:01N 59°19' E 018°10'0 0.0
2017-Jun-18 09:30N 59°19' E 018°10'0 0.0
2017-Jun-18 09:00N 59°19' E 018°10'0 0.0
2017-Jun-18 08:31N 59°19' E 018°10'0 0.0
2017-Jun-18 08:00N 59°19' E 018°10'0 0.0
2017-Jun-18 07:30N 59°19' E 018°10'0 0.0
2017-Jun-18 07:00N 59°19' E 018°10'0 0.0
2017-Jun-18 06:30N 59°19' E 018°10'0 0.0
2017-Jun-18 06:01N 59°19' E 018°10'0 0.0
2017-Jun-18 05:31N 59°19' E 018°10'0 0.0
2017-Jun-18 05:00N 59°19' E 018°10'0 0.0
2017-Jun-18 04:31N 59°19' E 018°10'0 0.0
2017-Jun-18 04:00N 59°19' E 018°10'0 0.0
2017-Jun-18 03:30N 59°19' E 018°10'0 0.0
2017-Jun-18 03:01N 59°19' E 018°10'0 0.0
2017-Jun-18 02:31N 59°19' E 018°10'0 0.0
2017-Jun-18 02:00N 59°19' E 018°10'0 0.0
2017-Jun-18 01:31N 59°19' E 018°10'0 0.0
2017-Jun-18 01:00N 59°19' E 018°10'0 0.0
2017-Jun-18 00:31N 59°19' E 018°10'0 0.0
2017-Jun-18 00:01N 59°19' E 018°10'0 0.0
2017-Jun-17 23:31N 59°19' E 018°10'0 0.0
2017-Jun-17 23:01N 59°19' E 018°10'0 0.0
2017-Jun-17 22:31N 59°19' E 018°10'0 0.0
2017-Jun-17 22:01N 59°19' E 018°10'0 0.0
2017-Jun-17 21:30N 59°19' E 018°10'0 0.0
2017-Jun-17 21:00N 59°19' E 018°10'0 0.0
2017-Jun-17 20:30N 59°19' E 018°10'0 0.0
2017-Jun-17 20:00N 59°19' E 018°10'0 0.0
2017-Jun-17 19:30N 59°19' E 018°10'0 0.0
2017-Jun-17 18:59N 59°19' E 018°10'0 0.0
2017-Jun-17 18:30N 59°19' E 018°10'0 0.0
2017-Jun-17 18:00N 59°19' E 018°10'0 0.0
2017-Jun-17 17:30N 59°19' E 018°10'0 0.0
2017-Jun-17 17:00N 59°19' E 018°10'0 0.0
2017-Jun-17 16:30N 59°19' E 018°10'0 0.0
2017-Jun-17 16:00N 59°19' E 018°10'0 0.0
2017-Jun-17 15:30N 59°19' E 018°10'0 0.0
2017-Jun-17 15:01N 59°19' E 018°10'0 0.0
2017-Jun-17 14:31N 59°19' E 018°10'0 0.0
2017-Jun-17 13:30N 59°19' E 018°10'0 0.0
2017-Jun-17 13:01N 59°19' E 018°10'0 0.0
2017-Jun-17 12:30N 59°19' E 018°10'0 0.0
2017-Jun-17 12:01N 59°19' E 018°10'0 0.0
2017-Jun-17 11:30N 59°19' E 018°10'0 0.0
2017-Jun-17 11:01N 59°19' E 018°10'0 0.0
2017-Jun-17 10:30N 59°19' E 018°10'0 0.0
2017-Jun-17 10:00N 59°19' E 018°10'0 0.0
2017-Jun-17 09:31N 59°19' E 018°10'0 0.0
2017-Jun-17 09:00N 59°19' E 018°10'0 0.0
2017-Jun-17 08:30N 59°19' E 018°10'0 0.0
2017-Jun-17 08:01N 59°19' E 018°10'0 0.0
2017-Jun-17 07:30N 59°19' E 018°10'0 0.0
2017-Jun-17 07:00N 59°19' E 018°10'0 0.0
2017-Jun-17 06:30N 59°19' E 018°10'0 0.0
2017-Jun-17 06:01N 59°19' E 018°10'0 0.0
2017-Jun-17 05:30N 59°19' E 018°10'0 0.0
2017-Jun-17 05:00N 59°19' E 018°10'0 0.0
2017-Jun-17 04:30N 59°19' E 018°10'0 0.0
2017-Jun-17 04:00N 59°19' E 018°10'0 0.0
2017-Jun-17 03:30N 59°19' E 018°10'0 0.0
2017-Jun-17 03:00N 59°19' E 018°10'0 0.0
2017-Jun-17 02:30N 59°19' E 018°10'0 0.0
2017-Jun-17 02:00N 59°19' E 018°10'0 0.0
2017-Jun-17 01:30N 59°19' E 018°10'0 0.0
2017-Jun-17 01:00N 59°19' E 018°10'0 0.0
2017-Jun-17 00:30N 59°19' E 018°10'0 0.0
2017-Jun-17 00:01N 59°19' E 018°10'0 0.0
2017-Jun-16 23:30N 59°19' E 018°10'0 0.0
2017-Jun-16 23:01N 59°19' E 018°10'0 0.0
2017-Jun-16 22:30N 59°19' E 018°10'0 0.0
2017-Jun-16 22:01N 59°19' E 018°10'0 0.0
2017-Jun-16 21:30N 59°19' E 018°10'0 0.0
2017-Jun-16 21:01N 59°19' E 018°10'0 0.0
2017-Jun-16 20:29N 59°19' E 018°10'0 0.0
2017-Jun-16 20:00N 59°19' E 018°10'0 0.0
2017-Jun-16 19:30N 59°19' E 018°10'0 0.0
2017-Jun-16 19:00N 59°19' E 018°10'0 0.0
2017-Jun-16 18:30N 59°19' E 018°10'0 0.0
2017-Jun-16 18:00N 59°19' E 018°10'0 0.0
2017-Jun-16 17:28N 59°19' E 018°10'0 0.0
2017-Jun-16 17:01N 59°19' E 018°10'0 0.0
2017-Jun-16 16:30N 59°19' E 018°10'0 0.0
2017-Jun-16 16:00N 59°19' E 018°10'0 0.0
2017-Jun-16 15:31N 59°19' E 018°10'0 0.0
2017-Jun-16 15:00N 59°19' E 018°10'0 0.0
2017-Jun-16 14:30N 59°19' E 018°10'13 0.3
2017-Jun-14 20:47N 59°11' E 018°30'1034.4
2017-Jun-14 20:30N 59°18' E 018°18'2 4.7
2017-Jun-14 20:00N 59°19' E 018°13'2 3.7
2017-Jun-14 19:30N 59°19' E 018°10'1 2.6
2017-Jun-14 19:01N 59°19' E 018°07'611.3
2017-Jun-14 18:30N 59°24' E 018°01'  
Track history (hours):
 
Tides and Currents Weather Stations Pressure Air Temp Water Temp Dewpoint Dewpoint Depression Visibility Wind Speed Wind Dir Waves Ship Positions

Polis 139-9950

Last reported at 2017-Jun-24 18:15 UTC. Time now 2017-Jun-25 00:18 UTC.
Position N 59°26' E 018°26'.

Length 16 m.

Type: Law enforcement. MMSI: 265565600.

Date/timePositionNaut miles runAvg speedWind from/ knotsBaromVisibWave heightAir tempDewpointWater temp
2017-Jun-24 18:15N 59°26' E 018°26'2 8.7
2017-Jun-24 17:59N 59°25' E 018°22'816.8
2017-Jun-24 17:30N 59°19' E 018°10'0 0.0
2017-Jun-24 17:00N 59°19' E 018°10'0 0.0
2017-Jun-24 16:30N 59°19' E 018°10'0 0.0
2017-Jun-24 16:00N 59°19' E 018°10'0 0.0
2017-Jun-24 15:30N 59°19' E 018°10'0 0.3
2017-Jun-24 15:00N 59°19' E 018°10'714.3
2017-Jun-24 14:30N 59°22' E 018°22'5 0.7
2017-Jun-24 07:38N 59°26' E 018°28'324.2
2017-Jun-24 07:30N 59°26' E 018°22'4 7.2
2017-Jun-24 07:00N 59°23' E 018°17'5 9.8
2017-Jun-24 06:30N 59°21' E 018°08'2 3.8
2017-Jun-24 06:00N 59°19' E 018°10'0 0.0
2017-Jun-24 05:30N 59°19' E 018°10'0 0.0
2017-Jun-24 05:00N 59°19' E 018°10'0 0.2
2017-Jun-24 04:30N 59°19' E 018°10'4 7.9
2017-Jun-24 04:00N 59°23' E 018°11'4 7.9
2017-Jun-24 03:30N 59°22' E 018°18'1919.4
2017-Jun-24 02:31N 59°17' E 018°55'0 0.0
2017-Jun-24 02:28N 59°17' E 018°55'0 0.0
2017-Jun-24 01:52N 59°17' E 018°55'0 0.0
2017-Jun-24 01:30N 59°17' E 018°55'0 0.0
2017-Jun-24 00:56N 59°17' E 018°55'2 4.5
2017-Jun-24 00:30N 59°18' E 018°52'5 7.5
2017-Jun-23 23:52N 59°17' E 018°42'410.1
2017-Jun-23 23:31N 59°19' E 018°49'3 6.8
2017-Jun-23 23:00N 59°17' E 018°55'0 0.0
2017-Jun-23 22:30N 59°17' E 018°55'0 0.0
2017-Jun-23 22:00N 59°17' E 018°55'0 0.0
2017-Jun-23 21:30N 59°17' E 018°55'1 1.9
2017-Jun-23 21:00N 59°17' E 018°57'0 0.0
2017-Jun-23 20:30N 59°17' E 018°57'0 0.0
2017-Jun-23 20:00N 59°17' E 018°57'0 0.0
2017-Jun-23 19:30N 59°17' E 018°57'1 1.9
2017-Jun-23 19:00N 59°17' E 018°55'1020.7
2017-Jun-23 18:30N 59°23' E 018°38'1120.8
2017-Jun-23 17:57N 59°26' E 018°16'3 7.1
2017-Jun-23 17:29N 59°24' E 018°22'816.5
2017-Jun-23 17:00N 59°19' E 018°10'0 0.0
2017-Jun-23 16:30N 59°19' E 018°10'5 9.6
2017-Jun-23 16:00N 59°22' E 018°17'5 9.6
2017-Jun-23 15:30N 59°19' E 018°10'2 3.5
2017-Jun-23 15:01N 59°20' E 018°12'7 6.8
2017-Jun-23 14:00N 59°25' E 018°22'815.7
2017-Jun-23 13:30N 59°20' E 018°10'1 1.5
2017-Jun-23 13:00N 59°19' E 018°10'0 0.0
2017-Jun-23 12:30N 59°19' E 018°10'0 0.0
2017-Jun-23 12:00N 59°19' E 018°10'0 0.0
2017-Jun-23 11:30N 59°19' E 018°10'2 4.1
2017-Jun-23 11:00N 59°19' E 018°06'1 1.2
2017-Jun-23 10:30N 59°19' E 018°06'0 0.2
2017-Jun-23 10:00N 59°19' E 018°06'2 3.3
2017-Jun-23 09:30N 59°19' E 018°09'0 0.3
2017-Jun-23 09:00N 59°19' E 018°10'0 0.0
2017-Jun-23 08:30N 59°19' E 018°10'0 0.0
2017-Jun-23 08:00N 59°19' E 018°10'0 0.0
2017-Jun-23 07:30N 59°19' E 018°10'0 0.0
2017-Jun-23 07:00N 59°19' E 018°10'0 0.0
2017-Jun-23 06:30N 59°19' E 018°10'0 0.0
2017-Jun-23 06:00N 59°19' E 018°10'0 0.0
2017-Jun-23 05:30N 59°19' E 018°10'0 0.0
2017-Jun-23 05:00N 59°19' E 018°10'0 0.0
2017-Jun-23 04:30N 59°19' E 018°10'0 0.0
2017-Jun-23 04:00N 59°19' E 018°10'0 0.0
2017-Jun-23 03:30N 59°19' E 018°10'3 7.0
2017-Jun-23 03:00N 59°21' E 018°15'9 4.2
2017-Jun-23 00:45N 59°25' E 018°32'518.4
2017-Jun-23 00:30N 59°22' E 018°24'816.3
2017-Jun-23 00:00N 59°19' E 018°10'0 0.0
2017-Jun-22 23:30N 59°19' E 018°10'0 0.0
2017-Jun-22 23:00N 59°19' E 018°10'0 0.0
2017-Jun-22 22:30N 59°19' E 018°10'0 0.0
2017-Jun-22 22:01N 59°19' E 018°10'0 0.0
2017-Jun-22 21:31N 59°19' E 018°10'0 0.0
2017-Jun-22 21:00N 59°19' E 018°10'0 0.0
2017-Jun-22 20:30N 59°19' E 018°10'0 0.0
2017-Jun-22 20:01N 59°19' E 018°10'0 0.0
2017-Jun-22 19:30N 59°19' E 018°10'0 0.0
2017-Jun-22 19:00N 59°19' E 018°10'0 0.0
2017-Jun-22 18:30N 59°19' E 018°10'0 0.0
2017-Jun-22 18:00N 59°19' E 018°10'0 0.0
2017-Jun-22 17:31N 59°19' E 018°10'0 0.0
2017-Jun-22 17:00N 59°19' E 018°10'0 0.0
2017-Jun-22 16:30N 59°19' E 018°10'0 0.0
2017-Jun-22 16:00N 59°19' E 018°10'0 0.0
2017-Jun-22 15:31N 59°19' E 018°10'0 0.0
2017-Jun-22 15:00N 59°19' E 018°10'0 0.0
2017-Jun-22 14:30N 59°19' E 018°10'0 0.0
2017-Jun-22 13:30N 59°19' E 018°10'0 0.0
2017-Jun-22 13:01N 59°19' E 018°10'0 0.0
2017-Jun-22 12:30N 59°19' E 018°10'917.6
2017-Jun-22 11:58N 59°23' E 018°27'14 4.9
2017-Jun-22 09:02N 59°27' E 018°54'10 1.6
2017-Jun-22 03:04N 59°17' E 018°57'0 0.0
2017-Jun-22 03:00N 59°17' E 018°57'0 0.0
2017-Jun-22 02:30N 59°17' E 018°57'0 0.0
2017-Jun-22 01:18N 59°17' E 018°57'0 0.0
2017-Jun-22 01:00N 59°17' E 018°57'0 0.0
2017-Jun-22 00:30N 59°17' E 018°57'0 0.0
2017-Jun-22 00:00N 59°17' E 018°57'0 0.0
2017-Jun-21 23:30N 59°17' E 018°57'0 0.0
2017-Jun-21 23:00N 59°17' E 018°57'0 0.0
2017-Jun-21 22:24N 59°17' E 018°57'0 0.1
2017-Jun-21 22:00N 59°17' E 018°57'0 0.1
2017-Jun-21 21:30N 59°17' E 018°57'0 0.0
2017-Jun-21 20:58N 59°17' E 018°57'17 3.9
2017-Jun-21 16:45N 59°25' E 018°28'314.0
2017-Jun-21 16:30N 59°25' E 018°22'714.4
2017-Jun-21 16:00N 59°20' E 018°12'1 2.4
2017-Jun-21 15:30N 59°19' E 018°10'0 0.0
2017-Jun-21 15:00N 59°19' E 018°10'0 0.0
2017-Jun-21 14:00N 59°19' E 018°10'0 0.0
2017-Jun-21 13:31N 59°19' E 018°10'0 0.0
2017-Jun-21 13:00N 59°19' E 018°10'0 0.0
2017-Jun-21 12:31N 59°19' E 018°10'0 0.0
2017-Jun-21 12:00N 59°19' E 018°10'0 0.0
2017-Jun-21 11:30N 59°19' E 018°10'0 0.0
2017-Jun-21 11:00N 59°19' E 018°10'0 0.0
2017-Jun-21 10:30N 59°19' E 018°10'0 0.0
2017-Jun-21 10:00N 59°19' E 018°10'0 0.0
2017-Jun-21 09:30N 59°19' E 018°10'0 0.0
2017-Jun-21 09:01N 59°19' E 018°10'4 8.9
2017-Jun-21 08:30N 59°22' E 018°16'4 7.0
2017-Jun-21 07:59N 59°24' E 018°22'0 0.0
2017-Jun-21 07:28N 59°24' E 018°22'0 0.0
2017-Jun-21 07:00N 59°24' E 018°22'0 0.0
2017-Jun-21 06:30N 59°24' E 018°22'0 0.0
2017-Jun-21 06:00N 59°24' E 018°22'0 0.0
2017-Jun-21 05:30N 59°24' E 018°22'0 0.0
2017-Jun-21 05:00N 59°24' E 018°22'0 0.0
2017-Jun-21 04:30N 59°24' E 018°22'0 0.0
2017-Jun-21 04:00N 59°24' E 018°22'0 0.0
2017-Jun-21 03:30N 59°24' E 018°22'0 0.0
2017-Jun-21 03:00N 59°24' E 018°22'0 0.0
2017-Jun-21 02:30N 59°24' E 018°22'0 0.0
2017-Jun-21 02:00N 59°24' E 018°22'0 0.0
2017-Jun-21 01:30N 59°24' E 018°22'0 0.0
2017-Jun-21 01:00N 59°24' E 018°22'0 0.0
2017-Jun-21 00:22N 59°24' E 018°22'0 0.0
2017-Jun-21 00:00N 59°24' E 018°22'0 0.0
2017-Jun-20 23:30N 59°24' E 018°22'0 0.0
2017-Jun-20 23:00N 59°24' E 018°22'0 0.0
2017-Jun-20 21:37N 59°24' E 018°22'0 0.0
2017-Jun-20 21:26N 59°24' E 018°22'0 0.0
2017-Jun-20 20:57N 59°24' E 018°22'0 0.0
2017-Jun-20 20:27N 59°24' E 018°22'0 0.0
2017-Jun-20 19:59N 59°24' E 018°22'0 0.0
2017-Jun-20 19:29N 59°24' E 018°22'0 0.0
2017-Jun-20 19:00N 59°24' E 018°22'0 0.0
2017-Jun-20 18:29N 59°24' E 018°22'0 0.0
2017-Jun-20 17:46N 59°24' E 018°22'0 0.0
2017-Jun-20 17:21N 59°24' E 018°22'0 0.0
2017-Jun-20 16:53N 59°24' E 018°22'0 0.0
2017-Jun-20 16:29N 59°24' E 018°22'0 0.0
2017-Jun-20 15:57N 59°24' E 018°22'0 0.0
2017-Jun-20 15:25N 59°24' E 018°22'0 0.0
2017-Jun-20 15:00N 59°24' E 018°22'0 0.0
2017-Jun-20 13:59N 59°24' E 018°22'0 0.0
2017-Jun-20 13:30N 59°24' E 018°22'0 0.0
2017-Jun-20 12:59N 59°24' E 018°22'0 0.0
2017-Jun-20 12:25N 59°24' E 018°22'0 0.0
2017-Jun-20 11:54N 59°24' E 018°22'0 0.0
2017-Jun-20 11:30N 59°24' E 018°22'0 0.0
2017-Jun-20 11:00N 59°24' E 018°22'0 0.0
2017-Jun-20 10:29N 59°24' E 018°22'0 0.0
2017-Jun-20 10:00N 59°24' E 018°22'0 0.0
2017-Jun-20 09:29N 59°24' E 018°22'0 0.0
2017-Jun-20 09:00N 59°24' E 018°22'0 0.0
2017-Jun-20 08:30N 59°24' E 018°22'0 0.0
2017-Jun-20 07:53N 59°24' E 018°22'0 0.0
2017-Jun-20 07:29N 59°24' E 018°22'0 0.0
2017-Jun-20 06:58N 59°24' E 018°22'0 0.0
2017-Jun-20 06:28N 59°24' E 018°22'0 0.0
2017-Jun-20 05:59N 59°24' E 018°22'0 0.0
2017-Jun-20 05:30N 59°24' E 018°22'0 0.0
2017-Jun-20 04:56N 59°24' E 018°22'0 0.0
2017-Jun-20 04:30N 59°24' E 018°22'0 0.0
2017-Jun-20 03:58N 59°24' E 018°22'0 0.0
2017-Jun-20 03:28N 59°24' E 018°22'0 0.0
2017-Jun-20 03:00N 59°24' E 018°22'0 0.0
2017-Jun-20 02:28N 59°24' E 018°22'0 0.0
2017-Jun-20 01:59N 59°24' E 018°22'0 0.0
2017-Jun-20 01:29N 59°24' E 018°22'0 0.0
2017-Jun-20 01:00N 59°24' E 018°22'0 0.0
2017-Jun-20 00:30N 59°24' E 018°22'0 0.0
2017-Jun-20 00:00N 59°24' E 018°22'0 0.0
2017-Jun-19 23:30N 59°24' E 018°22'0 0.0
2017-Jun-19 23:00N 59°24' E 018°22'0 0.0
2017-Jun-19 22:30N 59°24' E 018°22'0 0.0
2017-Jun-19 22:00N 59°24' E 018°22'0 0.0
2017-Jun-19 21:30N 59°24' E 018°22'0 0.0
2017-Jun-19 21:00N 59°24' E 018°22'0 0.0
2017-Jun-19 20:30N 59°24' E 018°22'0 0.0
2017-Jun-19 20:00N 59°24' E 018°22'0 0.0
2017-Jun-19 19:29N 59°24' E 018°22'0 0.0
2017-Jun-19 19:00N 59°24' E 018°22'0 0.0
2017-Jun-19 18:30N 59°24' E 018°22'0 0.0
2017-Jun-19 18:00N 59°24' E 018°22'0 0.0
2017-Jun-19 17:30N 59°24' E 018°22'0 0.0
2017-Jun-19 17:00N 59°24' E 018°22'0 0.0
2017-Jun-19 16:30N 59°24' E 018°22'0 0.0
2017-Jun-19 16:00N 59°24' E 018°22'0 0.0
2017-Jun-19 15:30N 59°24' E 018°22'0 0.0
2017-Jun-19 15:00N 59°24' E 018°22'0 0.0
2017-Jun-19 13:59N 59°24' E 018°22'0 0.0
2017-Jun-19 13:28N 59°24' E 018°22'0 0.0
2017-Jun-19 12:59N 59°24' E 018°22'0 0.0
2017-Jun-19 12:29N 59°24' E 018°22'0 0.0
2017-Jun-19 12:00N 59°24' E 018°22'0 0.0
2017-Jun-19 11:27N 59°24' E 018°22'0 0.0
2017-Jun-19 10:56N 59°24' E 018°22'0 0.0
2017-Jun-19 10:23N 59°24' E 018°22'0 0.0
2017-Jun-19 09:59N 59°24' E 018°22'0 0.0
2017-Jun-19 09:29N 59°24' E 018°22'0 0.0
2017-Jun-19 08:59N 59°24' E 018°22'2 4.7
2017-Jun-19 08:31N 59°23' E 018°19'611.8
2017-Jun-19 08:00N 59°19' E 018°10'0 0.0
2017-Jun-19 07:30N 59°19' E 018°10'0 0.0
2017-Jun-19 07:00N 59°19' E 018°10'0 0.0
2017-Jun-19 06:30N 59°19' E 018°10'0 0.0
2017-Jun-19 06:00N 59°19' E 018°10'0 0.0
2017-Jun-19 05:31N 59°19' E 018°10'0 0.0
2017-Jun-19 05:01N 59°19' E 018°10'0 0.0
2017-Jun-19 04:31N 59°19' E 018°10'0 0.0
2017-Jun-19 04:00N 59°19' E 018°10'0 0.0
2017-Jun-19 03:31N 59°19' E 018°10'0 0.0
2017-Jun-19 03:00N 59°19' E 018°10'0 0.0
2017-Jun-19 02:30N 59°19' E 018°10'0 0.0
2017-Jun-19 02:00N 59°19' E 018°10'0 0.0
2017-Jun-19 01:30N 59°19' E 018°10'0 0.0
2017-Jun-19 01:00N 59°19' E 018°10'0 0.0
2017-Jun-19 00:30N 59°19' E 018°10'0 0.0
2017-Jun-19 00:00N 59°19' E 018°10'0 0.0
2017-Jun-18 23:31N 59°19' E 018°10'0 0.0
2017-Jun-18 23:00N 59°19' E 018°10'0 0.0
2017-Jun-18 22:30N 59°19' E 018°10'0 0.0
2017-Jun-18 22:00N 59°19' E 018°10'0 0.0
2017-Jun-18 21:30N 59°19' E 018°10'0 0.0
2017-Jun-18 21:01N 59°19' E 018°10'0 0.0
2017-Jun-18 20:30N 59°19' E 018°10'0 0.0
2017-Jun-18 20:01N 59°19' E 018°10'0 0.0
2017-Jun-18 19:31N 59°19' E 018°10'0 0.0
2017-Jun-18 19:00N 59°19' E 018°10'0 0.0
2017-Jun-18 18:31N 59°19' E 018°10'0 0.0
2017-Jun-18 18:01N 59°19' E 018°10'0 0.0
2017-Jun-18 17:30N 59°19' E 018°10'0 0.0
2017-Jun-18 17:01N 59°19' E 018°10'0 0.0
2017-Jun-18 16:31N 59°19' E 018°10'0 0.0
2017-Jun-18 16:00N 59°19' E 018°10'0 0.0
2017-Jun-18 15:30N 59°19' E 018°10'0 0.0
2017-Jun-18 15:00N 59°19' E 018°10'0 0.0
2017-Jun-18 14:00N 59°19' E 018°10'0 0.0
2017-Jun-18 13:31N 59°19' E 018°10'0 0.0
2017-Jun-18 13:00N 59°19' E 018°10'0 0.0
2017-Jun-18 12:30N 59°19' E 018°10'0 0.0
2017-Jun-18 12:00N 59°19' E 018°10'0 0.0
2017-Jun-18 11:30N 59°19' E 018°10'0 0.0
2017-Jun-18 11:01N 59°19' E 018°10'0 0.0
2017-Jun-18 10:30N 59°19' E 018°10'0 0.0
2017-Jun-18 10:01N 59°19' E 018°10'0 0.0
2017-Jun-18 09:30N 59°19' E 018°10'0 0.0
2017-Jun-18 09:00N 59°19' E 018°10'0 0.0
2017-Jun-18 08:31N 59°19' E 018°10'0 0.0
2017-Jun-18 08:00N 59°19' E 018°10'0 0.0
2017-Jun-18 07:30N 59°19' E 018°10'0 0.0
2017-Jun-18 07:00N 59°19' E 018°10'0 0.0
2017-Jun-18 06:30N 59°19' E 018°10'0 0.0
2017-Jun-18 06:01N 59°19' E 018°10'0 0.0
2017-Jun-18 05:31N 59°19' E 018°10'0 0.0
2017-Jun-18 05:00N 59°19' E 018°10'0 0.0
2017-Jun-18 04:31N 59°19' E 018°10'0 0.0
2017-Jun-18 04:00N 59°19' E 018°10'0 0.0
2017-Jun-18 03:30N 59°19' E 018°10'0 0.0
2017-Jun-18 03:01N 59°19' E 018°10'0 0.0
2017-Jun-18 02:31N 59°19' E 018°10'0 0.0
2017-Jun-18 02:00N 59°19' E 018°10'0 0.0
2017-Jun-18 01:31N 59°19' E 018°10'0 0.0
2017-Jun-18 01:00N 59°19' E 018°10'0 0.0
2017-Jun-18 00:31N 59°19' E 018°10'0 0.0
2017-Jun-18 00:01N 59°19' E 018°10'0 0.0
2017-Jun-17 23:31N 59°19' E 018°10'0 0.0
2017-Jun-17 23:01N 59°19' E 018°10'0 0.0
2017-Jun-17 22:31N 59°19' E 018°10'0 0.0
2017-Jun-17 22:01N 59°19' E 018°10'0 0.0
2017-Jun-17 21:30N 59°19' E 018°10'0 0.0
2017-Jun-17 21:00N 59°19' E 018°10'0 0.0
2017-Jun-17 20:30N 59°19' E 018°10'0 0.0
2017-Jun-17 20:00N 59°19' E 018°10'0 0.0
2017-Jun-17 19:30N 59°19' E 018°10'0 0.0
2017-Jun-17 18:59N 59°19' E 018°10'0 0.0
2017-Jun-17 18:30N 59°19' E 018°10'0 0.0
2017-Jun-17 18:00N 59°19' E 018°10'0 0.0
2017-Jun-17 17:30N 59°19' E 018°10'0 0.0
2017-Jun-17 17:00N 59°19' E 018°10'0 0.0
2017-Jun-17 16:30N 59°19' E 018°10'0 0.0
2017-Jun-17 16:00N 59°19' E 018°10'0 0.0
2017-Jun-17 15:30N 59°19' E 018°10'0 0.0
2017-Jun-17 15:01N 59°19' E 018°10'0 0.0
2017-Jun-17 14:31N 59°19' E 018°10'0 0.0
2017-Jun-17 13:30N 59°19' E 018°10'0 0.0
2017-Jun-17 13:01N 59°19' E 018°10'0 0.0
2017-Jun-17 12:30N 59°19' E 018°10'0 0.0
2017-Jun-17 12:01N 59°19' E 018°10'0 0.0
2017-Jun-17 11:30N 59°19' E 018°10'0 0.0
2017-Jun-17 11:01N 59°19' E 018°10'0 0.0
2017-Jun-17 10:30N 59°19' E 018°10'0 0.0
2017-Jun-17 10:00N 59°19' E 018°10'0 0.0
2017-Jun-17 09:31N 59°19' E 018°10'0 0.0
2017-Jun-17 09:00N 59°19' E 018°10'0 0.0
2017-Jun-17 08:30N 59°19' E 018°10'0 0.0
2017-Jun-17 08:01N 59°19' E 018°10'0 0.0
2017-Jun-17 07:30N 59°19' E 018°10'0 0.0
2017-Jun-17 07:00N 59°19' E 018°10'0 0.0
2017-Jun-17 06:30N 59°19' E 018°10'0 0.0
2017-Jun-17 06:01N 59°19' E 018°10'0 0.0
2017-Jun-17 05:30N 59°19' E 018°10'0 0.0
2017-Jun-17 05:00N 59°19' E 018°10'0 0.0
2017-Jun-17 04:30N 59°19' E 018°10'0 0.0
2017-Jun-17 04:00N 59°19' E 018°10'0 0.0
2017-Jun-17 03:30N 59°19' E 018°10'0 0.0
2017-Jun-17 03:00N 59°19' E 018°10'0 0.0
2017-Jun-17 02:30N 59°19' E 018°10'0 0.0
2017-Jun-17 02:00N 59°19' E 018°10'0 0.0
2017-Jun-17 01:30N 59°19' E 018°10'0 0.0
2017-Jun-17 01:00N 59°19' E 018°10'0 0.0
2017-Jun-17 00:30N 59°19' E 018°10'0 0.0
2017-Jun-17 00:01N 59°19' E 018°10'0 0.0
2017-Jun-16 23:30N 59°19' E 018°10'0 0.0
2017-Jun-16 23:01N 59°19' E 018°10'0 0.0
2017-Jun-16 22:30N 59°19' E 018°10'0 0.0
2017-Jun-16 22:01N 59°19' E 018°10'0 0.0
2017-Jun-16 21:30N 59°19' E 018°10'0 0.0
2017-Jun-16 21:01N 59°19' E 018°10'0 0.0
2017-Jun-16 20:29N 59°19' E 018°10'0 0.0
2017-Jun-16 20:00N 59°19' E 018°10'0 0.0
2017-Jun-16 19:30N 59°19' E 018°10'0 0.0
2017-Jun-16 19:00N 59°19' E 018°10'0 0.0
2017-Jun-16 18:30N 59°19' E 018°10'0 0.0
2017-Jun-16 18:00N 59°19' E 018°10'0 0.0
2017-Jun-16 17:28N 59°19' E 018°10'0 0.0
2017-Jun-16 17:01N 59°19' E 018°10'0 0.0
2017-Jun-16 16:30N 59°19' E 018°10'0 0.0
2017-Jun-16 16:00N 59°19' E 018°10'0 0.0
2017-Jun-16 15:31N 59°19' E 018°10'0 0.0
2017-Jun-16 15:00N 59°19' E 018°10'0 0.0
2017-Jun-16 14:30N 59°19' E 018°10'13 0.3
2017-Jun-14 20:47N 59°11' E 018°30'1034.4
2017-Jun-14 20:30N 59°18' E 018°18'2 4.7
2017-Jun-14 20:00N 59°19' E 018°13'2 3.7
2017-Jun-14 19:30N 59°19' E 018°10'1 2.6
2017-Jun-14 19:01N 59°19' E 018°07'611.3
2017-Jun-14 18:30N 59°24' E 018°01'  

Dump ship's entire track history